Time;durP1;ratioP1;P1;durP2;ratioP2;P2;SDS_P1;SDS_P2;PMS_P1;PMS_P2;Temp;Humidity;BMP_temperature;BMP_pressure;BME280_temperature;BME280_humidity;BME280_pressure;Samples;Min_cycle;Max_cycle;Signal;HPM_P1;HPM_P2
2023/12/23 00:02:22;;;;;;;3.03;1.00;;;8.60;99.90;;;;;;4964681;28;20187;-63
2023/12/23 00:04:48;;;;;;;2.33;0.80;;;8.60;99.90;;;;;;4950110;29;20205;-64
2023/12/23 00:07:14;;;;;;;2.05;0.70;;;8.50;99.90;;;;;;4950999;28;20197;-63
2023/12/23 00:09:41;;;;;;;1.65;0.80;;;8.50;99.90;;;;;;4957181;28;20177;-63
2023/12/23 00:12:10;;;;;;;2.25;0.90;;;8.50;99.90;;;;;;4954312;28;20188;-63
2023/12/23 00:14:36;;;;;;;3.13;0.90;;;8.50;99.90;;;;;;4958978;28;20177;-64
2023/12/23 00:17:04;;;;;;;2.63;0.90;;;8.60;99.90;;;;;;4956654;28;20204;-65
2023/12/23 00:19:32;;;;;;;3.22;1.13;;;8.50;99.90;;;;;;4972301;28;20200;-65
2023/12/23 00:22:00;;;;;;;1.60;0.80;;;8.50;99.90;;;;;;4954118;28;20203;-65
2023/12/23 00:24:28;;;;;;;2.50;1.08;;;8.50;99.90;;;;;;4949295;28;20236;-66
2023/12/23 00:26:57;;;;;;;4.32;1.15;;;8.60;99.90;;;;;;4957289;28;20193;-66
2023/12/23 00:29:31;;;;;;;4.70;0.98;;;8.50;99.90;;;;;;4961787;28;20402;-67
2023/12/23 00:31:59;;;;;;;2.73;0.70;;;8.50;99.90;;;;;;4954843;28;20191;-67
2023/12/23 00:34:27;;;;;;;3.25;0.90;;;8.50;99.90;;;;;;4956997;29;20230;-67
2023/12/23 00:36:52;;;;;;;2.40;0.93;;;8.50;99.90;;;;;;4955082;28;20223;-67
2023/12/23 00:39:18;;;;;;;2.70;0.87;;;8.50;99.90;;;;;;4956538;28;20247;-67
2023/12/23 00:41:44;;;;;;;3.17;1.00;;;8.50;99.90;;;;;;4956613;28;20227;-68
2023/12/23 00:44:09;;;;;;;2.47;0.75;;;8.50;99.90;;;;;;4956409;28;20224;-68
2023/12/23 00:46:37;;;;;;;2.37;0.50;;;8.60;99.90;;;;;;4956857;28;20208;-68
2023/12/23 00:49:03;;;;;;;3.17;0.63;;;8.70;99.90;;;;;;4955422;28;20181;-68
2023/12/23 00:51:29;;;;;;;1.73;0.65;;;8.60;99.90;;;;;;4956309;28;20263;-68
2023/12/23 00:53:56;;;;;;;1.13;0.47;;;8.50;99.90;;;;;;4957556;28;20216;-68
2023/12/23 00:56:22;;;;;;;1.80;0.60;;;8.60;99.90;;;;;;4956464;28;20177;-68
2023/12/23 00:58:49;;;;;;;1.77;0.50;;;8.50;99.90;;;;;;4955714;28;20207;-65
2023/12/23 01:01:17;;;;;;;0.98;0.60;;;8.60;99.90;;;;;;4955834;28;20182;-66
2023/12/23 01:03:45;;;;;;;1.15;0.80;;;8.50;99.90;;;;;;4968518;28;20181;-67
2023/12/23 01:06:11;;;;;;;2.20;0.40;;;8.50;99.90;;;;;;4966807;28;20201;-66
2023/12/23 01:08:39;;;;;;;1.10;0.40;;;8.50;99.90;;;;;;4955091;28;20188;-66
2023/12/23 01:11:08;;;;;;;0.90;0.40;;;8.50;99.90;;;;;;4954229;28;20177;-67
2023/12/23 01:13:41;;;;;;;1.02;0.50;;;8.50;99.90;;;;;;4955870;29;20181;-66
2023/12/23 01:18:32;;;;;;;1.57;0.30;;;8.60;99.90;;;;;;5116313;23;20234;-66
2023/12/23 01:21:00;;;;;;;1.90;0.70;;;8.60;99.90;;;;;;4992985;28;20237;-69
2023/12/23 01:23:26;;;;;;;1.50;0.63;;;8.60;99.90;;;;;;5008897;28;20171;-66
2023/12/23 01:25:51;;;;;;;0.77;0.37;;;8.60;99.90;;;;;;5000534;28;20218;-66
2023/12/23 01:28:17;;;;;;;1.60;0.40;;;8.60;99.90;;;;;;4994288;28;20202;-66
2023/12/23 01:30:43;;;;;;;2.30;0.60;;;8.60;99.90;;;;;;5003793;28;20189;-67
2023/12/23 01:33:08;;;;;;;1.57;0.30;;;8.60;99.90;;;;;;4994011;28;20182;-67
2023/12/23 01:35:34;;;;;;;1.95;0.60;;;8.60;99.90;;;;;;4985351;28;20267;-67
2023/12/23 01:38:03;;;;;;;0.87;0.40;;;8.70;99.90;;;;;;4992783;28;20428;-67
2023/12/23 01:40:29;;;;;;;2.58;0.60;;;8.70;99.90;;;;;;4989844;28;20180;-67
2023/12/23 01:42:56;;;;;;;1.27;0.50;;;8.70;99.90;;;;;;5004033;28;20238;-67
2023/12/23 01:45:22;;;;;;;1.35;0.40;;;8.60;99.90;;;;;;4998335;28;20267;-67
2023/12/23 01:47:52;;;;;;;2.05;0.50;;;8.70;99.90;;;;;;4987480;28;20262;-67
2023/12/23 01:50:23;;;;;;;1.20;0.43;;;8.70;99.90;;;;;;4990133;28;20387;-66
2023/12/23 01:52:53;;;;;;;1.30;0.60;;;8.70;99.90;;;;;;4991400;28;20182;-66
2023/12/23 01:55:21;;;;;;;2.33;0.60;;;8.70;99.90;;;;;;5008352;28;20855;-66
2023/12/23 01:57:49;;;;;;;1.10;0.50;;;8.70;99.90;;;;;;4994139;28;20255;-65
2023/12/23 02:00:17;;;;;;;0.60;0.30;;;8.70;99.90;;;;;;5010961;28;20185;-66
2023/12/23 02:02:47;;;;;;;2.27;0.60;;;8.70;99.90;;;;;;4994301;28;20283;-66
2023/12/23 02:05:15;;;;;;;1.90;0.85;;;8.70;99.90;;;;;;4998123;28;20219;-67
2023/12/23 02:07:45;;;;;;;1.55;0.50;;;8.70;99.90;;;;;;4993814;28;20179;-67
2023/12/23 02:10:11;;;;;;;0.63;0.43;;;8.70;99.90;;;;;;4990443;28;20183;-67
2023/12/23 02:12:48;;;;;;;1.67;0.40;;;8.70;99.90;;;;;;4994025;28;20179;-67
2023/12/23 02:15:17;;;;;;;1.30;0.40;;;8.70;99.90;;;;;;4991568;28;20252;-67
2023/12/23 02:17:48;;;;;;;2.10;0.50;;;8.70;99.90;;;;;;4992902;28;20265;-67
2023/12/23 02:20:13;;;;;;;1.27;0.40;;;8.70;99.90;;;;;;4991716;28;20253;-67
2023/12/23 02:22:39;;;;;;;1.23;0.40;;;8.70;99.90;;;;;;5009112;28;20188;-68
2023/12/23 02:25:08;;;;;;;0.90;0.68;;;8.70;99.90;;;;;;4990633;28;20196;-68
2023/12/23 02:27:44;;;;;;;1.40;0.60;;;8.80;99.90;;;;;;4991423;28;20214;-68
2023/12/23 02:30:15;;;;;;;1.48;0.50;;;8.80;99.90;;;;;;4994186;28;20265;-67
2023/12/23 02:32:42;;;;;;;2.08;0.55;;;8.80;99.90;;;;;;4993125;28;20171;-68
2023/12/23 02:35:08;;;;;;;1.35;0.70;;;8.80;99.90;;;;;;4990056;28;20187;-68
2023/12/23 02:37:34;;;;;;;1.33;0.60;;;8.80;99.90;;;;;;4991388;28;20207;-68
2023/12/23 02:40:02;;;;;;;1.05;0.50;;;8.80;99.90;;;;;;4993777;28;20179;-67
2023/12/23 02:42:28;;;;;;;1.98;0.70;;;8.90;99.90;;;;;;5006218;28;20219;-68
2023/12/23 02:44:53;;;;;;;1.08;0.65;;;8.90;99.90;;;;;;4998408;28;20200;-68
2023/12/23 02:47:19;;;;;;;1.48;0.80;;;8.80;99.90;;;;;;5006385;28;20254;-68
2023/12/23 02:49:44;;;;;;;1.30;0.65;;;8.90;99.90;;;;;;5000369;28;20199;-68
2023/12/23 02:52:10;;;;;;;2.53;0.90;;;8.90;99.90;;;;;;4991929;28;20262;-68
2023/12/23 02:54:38;;;;;;;2.50;1.20;;;9.00;99.90;;;;;;5010844;28;20183;-68
2023/12/23 02:57:04;;;;;;;2.85;1.10;;;9.00;99.90;;;;;;4988903;28;20199;-69
2023/12/23 02:59:29;;;;;;;5.03;1.50;;;9.00;99.90;;;;;;4979825;28;20184;-69
2023/12/23 03:01:55;;;;;;;4.70;1.88;;;9.10;99.90;;;;;;4992720;28;20234;-68
2023/12/23 03:04:20;;;;;;;3.63;1.60;;;9.20;99.90;;;;;;4992578;28;20228;-67
2023/12/23 03:06:46;;;;;;;4.18;1.80;;;9.20;99.90;;;;;;4995492;28;20214;-66
2023/12/23 03:09:11;;;;;;;3.35;1.70;;;9.30;99.90;;;;;;4990023;28;20213;-66
2023/12/23 03:11:37;;;;;;;3.63;1.90;;;9.40;99.90;;;;;;4991145;28;20179;-66
2023/12/23 03:14:06;;;;;;;5.22;2.20;;;9.40;99.90;;;;;;4991583;28;20190;-65
2023/12/23 03:16:35;;;;;;;5.07;2.38;;;9.50;99.90;;;;;;4994371;28;20495;-65
2023/12/23 03:19:03;;;;;;;3.00;2.20;;;9.60;99.90;;;;;;4992663;28;20180;-65
2023/12/23 03:21:29;;;;;;;5.18;2.72;;;9.60;99.90;;;;;;4989359;28;20246;-65
2023/12/23 03:23:57;;;;;;;5.10;2.40;;;9.80;99.90;;;;;;4996797;28;20179;-65
2023/12/23 03:26:23;;;;;;;5.57;2.45;;;9.80;99.90;;;;;;4997175;28;20186;-65
2023/12/23 03:28:49;;;;;;;3.78;2.33;;;9.90;99.90;;;;;;4992459;28;20287;-65
2023/12/23 03:31:14;;;;;;;3.88;1.95;;;9.90;99.90;;;;;;4996236;28;20186;-65
2023/12/23 03:33:40;;;;;;;4.13;2.00;;;9.90;99.90;;;;;;5013008;28;20187;-64
2023/12/23 03:36:06;;;;;;;4.43;1.75;;;10.00;99.90;;;;;;4990746;28;20286;-64
2023/12/23 03:38:32;;;;;;;5.10;2.38;;;10.10;99.90;;;;;;5002934;28;20183;-64
2023/12/23 03:40:57;;;;;;;3.97;2.00;;;10.10;99.90;;;;;;4996769;28;20187;-65
2023/12/23 03:43:23;;;;;;;4.10;2.00;;;10.10;99.90;;;;;;5003108;28;20171;-65
2023/12/23 03:45:51;;;;;;;6.70;2.10;;;10.20;99.90;;;;;;4994295;28;20496;-65
2023/12/23 03:48:16;;;;;;;4.82;2.30;;;10.20;99.90;;;;;;4993010;28;20195;-65
2023/12/23 03:50:45;;;;;;;4.18;2.00;;;10.20;99.90;;;;;;4996315;28;20271;-65
2023/12/23 03:53:14;;;;;;;3.97;2.10;;;10.20;99.90;;;;;;4997337;28;20230;-63
2023/12/23 03:55:42;;;;;;;4.22;2.00;;;10.20;99.90;;;;;;4995738;28;20203;-63
2023/12/23 03:58:08;;;;;;;3.38;2.33;;;10.20;99.90;;;;;;4995056;28;20187;-64
2023/12/23 04:00:33;;;;;;;5.45;2.17;;;10.30;99.90;;;;;;4997633;28;20290;-63
2023/12/23 04:03:01;;;;;;;3.45;2.08;;;10.30;99.90;;;;;;5013128;28;20218;-64
2023/12/23 04:05:27;;;;;;;2.38;1.55;;;10.30;99.90;;;;;;4991032;28;20254;-65
2023/12/23 04:07:52;;;;;;;5.38;2.08;;;10.20;99.90;;;;;;5009938;28;20207;-64
2023/12/23 04:10:18;;;;;;;3.25;1.83;;;10.30;99.90;;;;;;4991378;28;20426;-64
2023/12/23 04:12:46;;;;;;;4.25;1.50;;;10.30;99.90;;;;;;5010984;28;20179;-64
2023/12/23 04:15:12;;;;;;;5.85;2.00;;;10.30;99.90;;;;;;5006045;28;20273;-65
2023/12/23 04:17:42;;;;;;;2.58;1.65;;;10.20;99.90;;;;;;4993720;28;20195;-65
2023/12/23 04:20:08;;;;;;;3.88;1.60;;;10.30;99.90;;;;;;4995575;28;20176;-65
2023/12/23 04:22:39;;;;;;;4.53;1.95;;;10.20;99.90;;;;;;4996371;28;20198;-65
2023/12/23 04:25:09;;;;;;;3.72;2.00;;;10.20;99.90;;;;;;4995500;28;20200;-64
2023/12/23 04:27:35;;;;;;;6.75;2.10;;;10.20;99.90;;;;;;4994232;28;20195;-65
2023/12/23 04:30:00;;;;;;;4.07;1.92;;;10.20;99.90;;;;;;4996185;28;20190;-65
2023/12/23 04:32:28;;;;;;;3.95;1.80;;;10.30;99.90;;;;;;5009587;28;20266;-64
2023/12/23 04:34:55;;;;;;;6.28;2.30;;;10.20;99.90;;;;;;5004123;28;20380;-64
2023/12/23 04:37:26;;;;;;;5.28;2.13;;;10.20;99.90;;;;;;5010242;28;20179;-64
2023/12/23 04:39:53;;;;;;;4.82;1.90;;;10.20;99.90;;;;;;5010459;28;20179;-64
2023/12/23 04:42:18;;;;;;;4.40;1.83;;;10.20;99.90;;;;;;4996149;28;20183;-64
2023/12/23 04:44:44;;;;;;;4.95;1.95;;;10.20;99.90;;;;;;5008872;28;20201;-64
2023/12/23 04:47:10;;;;;;;5.55;1.92;;;10.30;99.90;;;;;;4991712;28;20230;-64
2023/12/23 04:49:35;;;;;;;5.70;1.90;;;10.30;99.90;;;;;;4991777;28;20176;-64
2023/12/23 04:52:03;;;;;;;6.00;2.28;;;10.20;99.90;;;;;;4993800;28;20183;-65
2023/12/23 04:54:29;;;;;;;5.15;2.28;;;10.20;99.90;;;;;;4995567;28;20203;-65
2023/12/23 04:56:57;;;;;;;3.42;1.90;;;10.30;99.90;;;;;;5017436;28;20279;-65
2023/12/23 04:59:25;;;;;;;2.80;1.52;;;10.30;99.90;;;;;;5010103;28;20226;-65
2023/12/23 05:01:55;;;;;;;4.47;2.10;;;10.20;99.90;;;;;;5000130;28;20204;-66
2023/12/23 05:04:21;;;;;;;5.40;2.13;;;10.30;99.90;;;;;;4984979;28;20198;-65
2023/12/23 05:06:46;;;;;;;7.38;2.08;;;10.20;99.90;;;;;;4989955;28;20172;-65
2023/12/23 05:09:14;;;;;;;4.75;1.60;;;10.20;99.90;;;;;;5006513;28;20550;-65
2023/12/23 05:11:40;;;;;;;5.72;1.48;;;10.20;99.90;;;;;;4989090;28;20364;-65
2023/12/23 05:14:08;;;;;;;4.05;1.40;;;10.30;99.90;;;;;;4998763;28;20238;-64
2023/12/23 05:16:33;;;;;;;2.45;1.30;;;10.20;99.90;;;;;;4994505;28;20179;-65
2023/12/23 05:18:59;;;;;;;3.53;1.30;;;10.30;99.90;;;;;;4991955;28;20183;-64
2023/12/23 05:21:27;;;;;;;3.25;1.50;;;10.30;99.90;;;;;;4991569;28;20219;-65
2023/12/23 05:23:55;;;;;;;3.70;1.50;;;10.30;99.90;;;;;;4993538;28;20250;-66
2023/12/23 05:26:21;;;;;;;2.47;1.42;;;10.20;99.90;;;;;;5001721;28;20179;-64
2023/12/23 05:28:47;;;;;;;3.25;1.02;;;10.20;99.90;;;;;;4994805;28;20172;-63
2023/12/23 05:31:15;;;;;;;3.55;1.40;;;10.20;99.90;;;;;;4987221;28;20195;-64
2023/12/23 05:33:40;;;;;;;2.15;1.00;;;10.20;99.90;;;;;;5008509;28;20561;-64
2023/12/23 05:36:10;;;;;;;3.95;1.15;;;10.30;99.90;;;;;;4994763;28;20207;-64
2023/12/23 05:38:37;;;;;;;4.72;1.40;;;10.20;99.90;;;;;;4991382;28;20184;-64
2023/12/23 05:41:05;;;;;;;2.65;1.10;;;10.20;99.90;;;;;;4995666;28;20183;-64
2023/12/23 05:43:31;;;;;;;4.45;2.00;;;10.20;99.90;;;;;;4991933;28;20179;-64
2023/12/23 05:46:01;;;;;;;4.40;1.40;;;10.20;99.90;;;;;;4992267;28;20239;-65
2023/12/23 05:48:27;;;;;;;4.05;1.23;;;10.20;99.90;;;;;;5011157;28;20184;-66
2023/12/23 05:50:52;;;;;;;3.17;1.27;;;10.20;99.90;;;;;;4993110;28;20194;-66
2023/12/23 05:53:18;;;;;;;3.40;1.50;;;10.20;99.90;;;;;;4994254;28;20215;-65
2023/12/23 05:55:43;;;;;;;6.90;1.63;;;10.20;99.90;;;;;;4986552;28;20184;-65
2023/12/23 05:58:09;;;;;;;5.00;1.55;;;10.20;99.90;;;;;;4994531;28;20207;-65
2023/12/23 06:00:35;;;;;;;4.85;1.48;;;10.30;99.90;;;;;;4983806;28;20188;-65
2023/12/23 06:03:02;;;;;;;3.70;1.40;;;10.30;99.90;;;;;;4995605;28;20184;-64
2023/12/23 06:05:28;;;;;;;4.55;1.27;;;10.30;99.90;;;;;;4990741;28;20200;-64
2023/12/23 06:07:57;;;;;;;4.45;1.10;;;10.30;99.90;;;;;;4991414;28;20180;-65
2023/12/23 06:10:22;;;;;;;5.55;1.52;;;10.40;99.90;;;;;;4991462;28;20198;-64
2023/12/23 06:12:51;;;;;;;3.95;1.33;;;10.40;99.90;;;;;;4993725;28;20175;-64
2023/12/23 06:15:18;;;;;;;4.65;1.60;;;10.40;99.90;;;;;;4998210;28;20281;-63
2023/12/23 06:17:46;;;;;;;4.85;1.63;;;10.50;99.90;;;;;;5009399;28;20203;-64
2023/12/23 06:20:11;;;;;;;5.18;1.25;;;10.50;99.90;;;;;;4989603;28;20176;-64
2023/12/23 06:22:37;;;;;;;4.90;1.25;;;10.50;99.90;;;;;;4990987;28;20215;-64
2023/12/23 06:25:03;;;;;;;4.93;1.10;;;10.60;99.90;;;;;;4984000;28;20207;-63
2023/12/23 06:27:31;;;;;;;4.32;1.35;;;10.60;99.90;;;;;;4992324;28;20175;-63
2023/12/23 06:29:56;;;;;;;5.43;1.48;;;10.60;99.90;;;;;;5009666;28;20222;-63
2023/12/23 06:32:27;;;;;;;3.75;1.08;;;10.60;99.90;;;;;;5007239;28;20179;-63
2023/12/23 06:34:52;;;;;;;2.63;1.10;;;10.60;99.90;;;;;;4989398;28;20195;-63
2023/12/23 06:37:20;;;;;;;2.80;1.15;;;10.60;99.90;;;;;;4992329;28;20194;-62
2023/12/23 06:39:48;;;;;;;2.40;1.00;;;10.60;99.90;;;;;;5008378;28;20261;-63
2023/12/23 06:42:13;;;;;;;1.75;1.00;;;10.60;99.90;;;;;;5010934;28;20207;-63
2023/12/23 06:44:41;;;;;;;2.38;1.08;;;10.60;99.90;;;;;;4993313;28;20199;-62
2023/12/23 06:47:07;;;;;;;3.95;1.23;;;10.60;99.90;;;;;;5000902;28;20245;-63
2023/12/23 06:49:35;;;;;;;2.45;1.08;;;10.70;99.90;;;;;;4989871;28;20527;-63
2023/12/23 06:52:01;;;;;;;2.50;1.30;;;10.70;99.90;;;;;;4996345;28;20163;-71
2023/12/23 06:54:26;;;;;;;2.50;1.00;;;10.60;99.90;;;;;;4994220;28;20200;-70
2023/12/23 06:56:52;;;;;;;3.35;1.00;;;10.70;99.90;;;;;;4995782;28;20179;-71
2023/12/23 06:59:19;;;;;;;2.40;1.08;;;10.70;99.90;;;;;;4997265;28;20251;-70
2023/12/23 07:01:47;;;;;;;0.98;0.68;;;10.60;99.90;;;;;;5003276;28;20211;-72
2023/12/23 07:04:13;;;;;;;2.08;0.90;;;10.60;99.90;;;;;;4997577;28;20463;-72
2023/12/23 07:06:41;;;;;;;3.05;0.80;;;10.70;99.90;;;;;;4994727;28;20257;-68
2023/12/23 07:09:12;;;;;;;1.20;0.80;;;10.60;99.90;;;;;;4997855;28;20192;-73
2023/12/23 07:11:37;;;;;;;1.55;0.77;;;10.60;99.90;;;;;;4996371;28;20176;-71
2023/12/23 07:14:03;;;;;;;1.25;0.70;;;10.60;99.90;;;;;;4997692;28;20210;-73
2023/12/23 07:16:31;;;;;;;1.77;0.70;;;10.60;99.90;;;;;;5111738;23;21556;-71
2023/12/23 07:18:56;;;;;;;1.30;0.82;;;10.60;99.90;;;;;;5013561;28;20235;-71
2023/12/23 07:21:22;;;;;;;2.60;1.10;;;10.60;99.90;;;;;;4997166;28;20218;-71
2023/12/23 07:23:47;;;;;;;1.63;0.80;;;10.60;99.90;;;;;;4997693;28;20175;-77
2023/12/23 07:26:16;;;;;;;1.98;0.82;;;10.60;99.90;;;;;;4997137;28;20214;-72
2023/12/23 07:28:41;;;;;;;1.60;0.90;;;10.60;99.90;;;;;;4995664;28;20167;-73
2023/12/23 07:31:07;;;;;;;1.45;0.88;;;10.70;99.90;;;;;;4994599;28;20261;-73
2023/12/23 07:33:35;;;;;;;1.98;1.00;;;10.70;99.90;;;;;;4996344;28;20171;-72
2023/12/23 07:36:01;;;;;;;2.03;0.93;;;10.80;99.90;;;;;;4996717;28;20179;-69
2023/12/23 07:38:29;;;;;;;2.10;1.08;;;10.80;99.90;;;;;;5005261;28;20215;-68
2023/12/23 07:40:56;;;;;;;3.40;1.23;;;10.70;99.90;;;;;;4995478;28;20179;-71
2023/12/23 07:43:22;;;;;;;5.53;1.70;;;10.70;99.90;;;;;;4990126;28;20175;-68
2023/12/23 07:45:48;;;;;;;2.22;1.10;;;10.60;99.90;;;;;;4992867;28;20260;-69
2023/12/23 07:48:13;;;;;;;3.35;1.50;;;10.60;99.90;;;;;;4994880;28;20183;-64
2023/12/23 07:50:39;;;;;;;5.13;1.75;;;10.70;99.90;;;;;;4997462;28;20195;-72
2023/12/23 07:53:04;;;;;;;3.28;1.48;;;10.60;99.90;;;;;;4992194;28;20177;-72
2023/12/23 07:55:34;;;;;;;6.70;1.77;;;10.60;99.90;;;;;;4998196;28;20368;-73
2023/12/23 07:58:02;;;;;;;4.68;1.70;;;10.60;99.90;;;;;;5012646;28;20186;-72
2023/12/23 08:00:32;;;;;;;3.88;1.67;;;10.60;99.90;;;;;;4992445;28;20192;-71
2023/12/23 08:02:58;;;;;;;3.88;1.70;;;10.60;99.90;;;;;;4991846;28;20184;-72
2023/12/23 08:05:23;;;;;;;4.35;1.67;;;10.80;99.90;;;;;;4977651;28;20215;-66
2023/12/23 08:07:49;;;;;;;4.03;1.67;;;10.70;99.90;;;;;;4987096;28;20191;-72
2023/12/23 08:10:16;;;;;;;3.95;1.40;;;10.60;99.90;;;;;;4993940;28;20436;-71
2023/12/23 08:12:45;;;;;;;3.50;1.23;;;10.70;99.90;;;;;;4996708;28;20317;-71
2023/12/23 08:15:10;;;;;;;4.97;1.65;;;10.70;99.90;;;;;;4990015;28;20207;-72
2023/12/23 08:17:42;;;;;;;2.38;1.23;;;10.80;99.90;;;;;;5010963;28;20253;-71
2023/12/23 08:20:08;;;;;;;3.30;1.38;;;10.80;99.90;;;;;;4996697;28;20207;-72
2023/12/23 08:22:34;;;;;;;2.63;1.38;;;10.80;99.90;;;;;;4993082;28;20207;-72
2023/12/23 08:25:00;;;;;;;3.28;1.25;;;10.90;99.90;;;;;;4995561;28;20211;-73
2023/12/23 08:27:27;;;;;;;2.53;1.27;;;10.80;99.90;;;;;;5009776;28;20335;-68
2023/12/23 08:29:56;;;;;;;3.80;1.50;;;10.90;99.90;;;;;;4986164;28;20190;-72
2023/12/23 08:32:24;;;;;;;3.67;1.38;;;10.90;99.90;;;;;;4996088;28;20179;-71
2023/12/23 08:34:52;;;;;;;3.50;1.33;;;10.90;99.90;;;;;;4993488;28;20243;-71
2023/12/23 08:37:17;;;;;;;3.97;1.40;;;10.90;99.90;;;;;;4993374;28;20186;-74
2023/12/23 08:39:43;;;;;;;3.15;1.30;;;10.90;99.90;;;;;;4985230;28;20175;-70
2023/12/23 08:42:08;;;;;;;3.78;1.50;;;11.00;99.90;;;;;;5010540;28;20229;-71
2023/12/23 08:44:34;;;;;;;2.47;1.42;;;11.00;99.90;;;;;;5012657;28;20199;-71
2023/12/23 08:47:02;;;;;;;5.35;1.50;;;11.00;99.90;;;;;;5001057;28;20203;-71
2023/12/23 08:49:27;;;;;;;3.60;1.77;;;11.10;99.90;;;;;;4996120;28;20176;-70
2023/12/23 08:51:55;;;;;;;3.40;1.30;;;11.10;99.90;;;;;;4995389;28;20181;-70
2023/12/23 08:54:23;;;;;;;3.15;1.58;;;11.10;99.90;;;;;;4991241;28;20203;-71
2023/12/23 08:56:49;;;;;;;5.25;2.00;;;11.10;99.90;;;;;;4992999;28;20180;-72
2023/12/23 08:59:14;;;;;;;3.58;1.50;;;11.10;99.90;;;;;;4981089;28;20199;-71
2023/12/23 09:01:43;;;;;;;3.20;1.38;;;11.20;99.90;;;;;;4983457;28;20197;-71
2023/12/23 09:04:11;;;;;;;4.28;1.70;;;11.20;99.90;;;;;;5004086;28;20171;-71
2023/12/23 09:06:37;;;;;;;3.50;1.90;;;11.20;99.90;;;;;;4994823;28;20184;-71
2023/12/23 09:09:03;;;;;;;3.13;1.80;;;11.30;99.90;;;;;;4994546;28;20237;-71
2023/12/23 09:11:31;;;;;;;5.60;1.95;;;11.30;99.90;;;;;;5011591;28;20171;-70
2023/12/23 09:13:57;;;;;;;6.45;1.88;;;11.30;99.90;;;;;;5006510;28;20468;-69
2023/12/23 09:16:24;;;;;;;5.25;1.90;;;11.30;99.90;;;;;;4995607;28;20225;-70
2023/12/23 09:18:50;;;;;;;4.32;1.80;;;11.40;99.90;;;;;;4993350;28;20270;-71
2023/12/23 09:21:16;;;;;;;6.07;1.85;;;11.40;99.90;;;;;;4980940;28;20263;-66
2023/12/23 09:23:44;;;;;;;6.50;2.10;;;11.40;99.90;;;;;;4992260;28;20179;-71
2023/12/23 09:26:13;;;;;;;6.35;1.98;;;11.50;99.90;;;;;;4990960;28;20231;-70
2023/12/23 09:28:38;;;;;;;5.45;1.60;;;11.50;99.90;;;;;;4976470;28;20247;-72
2023/12/23 09:31:04;;;;;;;4.28;2.00;;;11.50;99.90;;;;;;4992334;28;20207;-68
2023/12/23 09:33:30;;;;;;;7.22;1.80;;;11.60;99.90;;;;;;4993541;28;20176;-72
2023/12/23 09:35:56;;;;;;;5.20;1.83;;;11.60;99.90;;;;;;4998060;28;20207;-72
2023/12/23 09:38:23;;;;;;;3.65;1.70;;;11.60;99.90;;;;;;5014425;28;20182;-67
2023/12/23 09:40:52;;;;;;;5.95;1.52;;;11.70;99.90;;;;;;5023197;28;20179;-62
2023/12/23 09:43:23;;;;;;;3.85;1.58;;;11.70;99.90;;;;;;5015279;28;20207;-71
2023/12/23 09:45:51;;;;;;;4.22;1.30;;;11.70;99.90;;;;;;4995544;28;20206;-72
2023/12/23 09:48:17;;;;;;;3.15;1.45;;;11.70;99.90;;;;;;5000021;28;20299;-70
2023/12/23 09:50:43;;;;;;;3.65;1.63;;;11.70;99.90;;;;;;4991871;28;20205;-69
2023/12/23 09:53:13;;;;;;;5.35;1.60;;;11.70;99.90;;;;;;4985853;28;20222;-71
2023/12/23 09:55:43;;;;;;;3.38;1.70;;;11.70;99.90;;;;;;4994678;28;20187;-70
2023/12/23 09:58:13;;;;;;;5.70;1.45;;;11.80;99.90;;;;;;5010832;28;20175;-72
2023/12/23 10:00:39;;;;;;;3.45;1.50;;;11.80;99.90;;;;;;4991559;28;20195;-71
2023/12/23 10:03:09;;;;;;;2.78;1.40;;;11.80;99.90;;;;;;4985031;28;20295;-68
2023/12/23 10:05:41;;;;;;;5.88;1.70;;;11.80;99.90;;;;;;4985757;28;20196;-69
2023/12/23 10:08:07;;;;;;;5.97;1.48;;;11.80;99.90;;;;;;4991708;28;20202;-70
2023/12/23 10:10:33;;;;;;;3.63;1.45;;;11.80;99.90;;;;;;4992434;28;20219;-71
2023/12/23 10:12:59;;;;;;;3.92;1.45;;;11.90;99.90;;;;;;4994726;28;20175;-66
2023/12/23 10:15:24;;;;;;;3.15;1.27;;;11.90;99.90;;;;;;4994030;28;20201;-72
2023/12/23 10:17:50;;;;;;;4.03;1.55;;;11.90;99.90;;;;;;4993219;28;20215;-72
2023/12/23 10:20:15;;;;;;;4.70;1.58;;;11.90;99.90;;;;;;5011358;28;20186;-70
2023/12/23 10:22:44;;;;;;;2.47;1.13;;;12.00;99.90;;;;;;4993590;28;20179;-72
2023/12/23 10:25:11;;;;;;;3.95;1.17;;;12.00;99.90;;;;;;4990354;28;20235;-72
2023/12/23 10:27:40;;;;;;;2.58;1.30;;;12.10;99.90;;;;;;4998656;28;20175;-72
2023/12/23 10:30:11;;;;;;;3.10;1.02;;;12.00;99.90;;;;;;4984941;28;20212;-69
2023/12/23 10:32:41;;;;;;;2.47;1.40;;;12.00;99.90;;;;;;4999782;28;20179;-70
2023/12/23 10:35:08;;;;;;;3.33;1.35;;;12.10;99.90;;;;;;5014974;28;20190;-70
2023/12/23 10:37:35;;;;;;;3.40;1.30;;;12.00;99.90;;;;;;4995659;28;20234;-71
2023/12/23 10:40:16;;;;;;;2.30;1.15;;;12.00;99.90;;;;;;4980454;28;20184;-71
2023/12/23 10:42:45;;;;;;;3.25;1.23;;;11.90;99.90;;;;;;4996932;28;20178;-71
2023/12/23 10:45:12;;;;;;;3.75;1.42;;;11.90;99.90;;;;;;5009024;28;20199;-73
2023/12/23 10:47:38;;;;;;;3.75;1.20;;;11.80;99.90;;;;;;5006740;28;20175;-70
2023/12/23 10:50:05;;;;;;;3.40;1.13;;;11.80;99.90;;;;;;4997987;28;20254;-67
2023/12/23 10:52:32;;;;;;;3.00;1.08;;;11.80;99.90;;;;;;4996735;28;20226;-71
2023/12/23 10:55:01;;;;;;;2.60;1.30;;;11.80;99.90;;;;;;5014112;28;20183;-71
2023/12/23 10:57:30;;;;;;;2.65;1.10;;;11.80;99.90;;;;;;4979831;28;20175;-71
2023/12/23 10:59:56;;;;;;;4.10;1.25;;;11.80;99.90;;;;;;4995615;28;20222;-72
2023/12/23 11:02:31;;;;;;;4.50;1.20;;;11.80;99.90;;;;;;4994883;28;20286;-68
2023/12/23 11:05:00;;;;;;;3.00;1.20;;;11.80;99.90;;;;;;4996254;28;20214;-72
2023/12/23 11:07:31;;;;;;;3.28;1.33;;;11.90;99.90;;;;;;4979276;28;20183;-69
2023/12/23 11:10:03;;;;;;;2.42;1.10;;;11.80;99.90;;;;;;4998088;28;20498;-72
2023/12/23 11:12:36;;;;;;;3.72;1.08;;;11.80;99.90;;;;;;4991512;28;20271;-71
2023/12/23 11:15:02;;;;;;;2.83;0.90;;;11.90;99.90;;;;;;4991718;28;20180;-73
2023/12/23 11:17:29;;;;;;;3.35;1.10;;;11.90;99.90;;;;;;5006338;28;20198;-73
2023/12/23 11:19:59;;;;;;;3.10;1.35;;;11.90;99.90;;;;;;4994121;28;20215;-73
2023/12/23 11:22:28;;;;;;;3.90;1.10;;;12.00;99.90;;;;;;4997526;28;20175;-72
2023/12/23 11:24:56;;;;;;;1.88;0.90;;;11.90;99.90;;;;;;5014286;28;20245;-72
2023/12/23 11:27:32;;;;;;;2.28;1.02;;;11.90;99.90;;;;;;4985923;28;20176;-72
2023/12/23 11:30:00;;;;;;;3.47;1.10;;;11.80;99.90;;;;;;5002327;28;20182;-70
2023/12/23 11:32:41;;;;;;;3.22;1.13;;;11.90;99.90;;;;;;4980343;28;20176;-72
2023/12/23 11:35:12;;;;;;;1.42;0.82;;;11.90;99.90;;;;;;4977729;28;20195;-71
2023/12/23 11:37:55;;;;;;;2.47;1.10;;;11.90;99.90;;;;;;4987769;28;20243;-71
2023/12/23 11:40:21;;;;;;;1.67;1.00;;;11.90;99.90;;;;;;5005521;28;20201;-73
2023/12/23 11:42:49;;;;;;;3.53;1.00;;;11.90;99.90;;;;;;5002481;28;20180;-72
2023/12/23 11:45:17;;;;;;;5.68;1.25;;;11.90;99.90;;;;;;4995765;28;20211;-71
2023/12/23 11:47:47;;;;;;;1.55;1.05;;;11.90;99.90;;;;;;5000069;28;20261;-68
2023/12/23 11:50:15;;;;;;;4.72;1.20;;;11.90;99.90;;;;;;5007950;28;20235;-72
2023/12/23 11:52:42;;;;;;;2.67;1.00;;;11.90;99.90;;;;;;4980591;28;20172;-71
2023/12/23 11:55:09;;;;;;;3.10;1.50;;;12.00;99.90;;;;;;4985019;28;20179;-72
2023/12/23 11:57:38;;;;;;;2.25;0.85;;;12.00;99.90;;;;;;4996270;28;20202;-72
2023/12/23 12:00:05;;;;;;;2.97;0.93;;;12.00;99.90;;;;;;4994302;28;20219;-72
2023/12/23 12:02:31;;;;;;;3.90;1.10;;;12.00;99.90;;;;;;4994573;28;20175;-71
2023/12/23 12:04:58;;;;;;;4.22;1.30;;;12.00;99.90;;;;;;4993871;28;20278;-72
2023/12/23 12:07:27;;;;;;;5.50;1.85;;;12.10;99.90;;;;;;4996345;28;20196;-72
2023/12/23 12:09:52;;;;;;;2.13;1.00;;;12.10;99.90;;;;;;4993453;28;20311;-70
2023/12/23 12:12:23;;;;;;;3.25;0.93;;;12.10;99.90;;;;;;4977223;28;20227;-70
2023/12/23 12:14:49;;;;;;;2.85;1.00;;;12.10;99.90;;;;;;4990936;28;20200;-73
2023/12/23 12:17:15;;;;;;;2.97;0.98;;;12.10;99.90;;;;;;4993063;28;20269;-72
2023/12/23 12:19:40;;;;;;;1.88;0.90;;;12.20;99.90;;;;;;4991777;28;20267;-69
2023/12/23 12:22:06;;;;;;;2.75;1.00;;;12.20;99.90;;;;;;4996665;28;20195;-71
2023/12/23 12:24:33;;;;;;;2.70;1.20;;;12.20;99.90;;;;;;4992637;28;20204;-70
2023/12/23 12:27:01;;;;;;;4.03;1.17;;;12.30;99.90;;;;;;4996355;28;20185;-72
2023/12/23 12:29:29;;;;;;;4.50;1.23;;;12.30;99.90;;;;;;5011541;28;20175;-72
2023/12/23 12:31:59;;;;;;;1.40;0.80;;;12.40;99.90;;;;;;5008700;28;20286;-73
2023/12/23 12:34:28;;;;;;;2.72;0.90;;;12.40;99.90;;;;;;4996482;28;20267;-72
2023/12/23 12:36:54;;;;;;;4.50;1.20;;;12.40;99.90;;;;;;4994606;28;20198;-70
2023/12/23 12:39:20;;;;;;;2.58;0.90;;;12.40;99.90;;;;;;5010490;28;20179;-67
2023/12/23 12:41:50;;;;;;;2.25;1.13;;;12.50;99.90;;;;;;5012075;28;20199;-70
2023/12/23 12:44:20;;;;;;;3.47;1.20;;;12.50;99.90;;;;;;4995592;28;20189;-71
2023/12/23 12:46:55;;;;;;;3.33;1.10;;;12.50;99.90;;;;;;5010872;28;20275;-70
2023/12/23 12:49:23;;;;;;;4.25;1.00;;;12.50;99.90;;;;;;4992882;28;20231;-72
2023/12/23 12:51:52;;;;;;;2.35;1.00;;;12.50;99.90;;;;;;4986867;28;20190;-71
2023/12/23 12:54:20;;;;;;;1.67;0.82;;;12.60;99.90;;;;;;4979615;28;20175;-69